Terminal Aerodrome Forecast
Issued by NWS

Home | Current Version | Previous Version | Graphics & Text | Print | Product List | Glossary On
Versions: 1 2 3 4 5 6 7 8 9 10 11 12 13 14
000
FTUS43 KMPX 260520
TAFRWF
TAF
KRWF 260520Z 2606/2706 34014G22KT 6SM -SHRA BR OVC008
     FM261200 34013G22KT P6SM -SHRA OVC008
     FM261500 34014G24KT P6SM OVC010
     FM262100 33012G18KT P6SM OVC015=

USA.gov is the U.S. government's official web portal to all federal, state and local government web resources and services.